createdAt,value
2023-08-07T00:00:00.084Z,23.24
2023-08-07T00:02:27.446Z,23.23
2023-08-07T00:04:54.673Z,23.22
2023-08-07T00:07:21.767Z,23.23
2023-08-07T00:09:49.116Z,23.21
2023-08-07T00:12:16.236Z,23.18
2023-08-07T00:14:43.414Z,23.13
2023-08-07T00:17:10.438Z,23.15
2023-08-07T00:19:37.451Z,23.11
2023-08-07T00:22:04.603Z,23.08
2023-08-07T00:24:32.067Z,23.07
2023-08-07T00:26:59.424Z,23.02
2023-08-07T00:29:26.481Z,23.02
2023-08-07T00:31:53.787Z,23.03
2023-08-07T00:34:20.924Z,23.00
2023-08-07T00:36:48.552Z,22.99
2023-08-07T00:39:15.503Z,22.98
2023-08-07T00:41:42.619Z,22.98
2023-08-07T00:44:09.857Z,22.96
2023-08-07T00:46:37.929Z,22.95
2023-08-07T00:49:05.221Z,22.93
2023-08-07T00:51:32.734Z,22.91
2023-08-07T00:54:01.962Z,22.90
2023-08-07T00:56:29.667Z,22.89
2023-08-07T00:58:56.770Z,22.85
2023-08-07T01:01:24.613Z,22.84
2023-08-07T01:03:51.900Z,22.81
2023-08-07T01:06:18.947Z,22.79
2023-08-07T01:08:47.184Z,22.76
2023-08-07T01:11:30.845Z,22.74
2023-08-07T01:14:02.408Z,22.72
2023-08-07T01:16:36.880Z,22.67
2023-08-07T01:19:05.720Z,22.64
2023-08-07T01:21:34.095Z,22.59
2023-08-07T01:24:01.185Z,22.58
2023-08-07T01:26:28.305Z,22.54
2023-08-07T01:29:33.399Z,22.54
2023-08-07T01:32:06.450Z,22.49
2023-08-07T01:34:35.765Z,22.47
2023-08-07T01:37:04.691Z,22.46
2023-08-07T01:39:32.780Z,22.42
2023-08-07T01:42:01.994Z,22.42
2023-08-07T01:44:28.968Z,22.40
2023-08-07T01:46:56.239Z,22.35
2023-08-07T01:49:23.566Z,22.32
2023-08-07T01:51:50.569Z,22.33
2023-08-07T01:54:17.646Z,22.29
2023-08-07T01:56:44.602Z,22.27
2023-08-07T01:59:11.751Z,22.28
2023-08-07T02:01:38.873Z,22.29
2023-08-07T02:04:05.862Z,22.25
2023-08-07T02:06:32.996Z,22.28
2023-08-07T02:09:00.112Z,22.27
2023-08-07T02:11:27.150Z,22.28
2023-08-07T02:13:56.241Z,22.27
2023-08-07T02:16:23.406Z,22.29
2023-08-07T02:18:50.628Z,22.30
2023-08-07T02:21:37.629Z,22.30
2023-08-07T02:24:04.920Z,22.34
2023-08-07T02:26:32.447Z,22.39
2023-08-07T02:29:00.244Z,22.40
2023-08-07T02:31:27.242Z,22.44
2023-08-07T02:33:55.234Z,22.44
2023-08-07T02:36:22.409Z,22.46
2023-08-07T02:38:49.467Z,22.46
2023-08-07T02:41:16.519Z,22.52
2023-08-07T02:43:44.217Z,22.53
2023-08-07T02:46:11.595Z,22.55
2023-08-07T02:48:38.622Z,22.50
2023-08-07T02:51:05.934Z,22.56
2023-08-07T02:53:33.286Z,22.62
2023-08-07T02:56:00.448Z,22.61
2023-08-07T02:58:27.634Z,22.67
2023-08-07T03:00:54.959Z,22.70
2023-08-07T03:03:22.110Z,22.70
2023-08-07T03:05:51.455Z,22.74
2023-08-07T03:08:18.890Z,22.78
2023-08-07T03:10:57.063Z,22.81
2023-08-07T03:13:26.934Z,22.82
2023-08-07T03:16:07.450Z,22.86
2023-08-07T03:18:35.707Z,22.90
2023-08-07T03:21:03.185Z,22.91
2023-08-07T03:23:30.438Z,22.96
2023-08-07T03:28:41.954Z,23.08
2023-08-07T03:31:09.860Z,23.11
2023-08-07T03:33:38.009Z,23.16
2023-08-07T03:36:05.520Z,23.18
2023-08-07T03:38:33.608Z,23.24
2023-08-07T03:41:01.034Z,23.28
2023-08-07T03:43:29.701Z,23.32
2023-08-07T03:46:02.960Z,23.36
2023-08-07T03:48:32.344Z,23.41
2023-08-07T03:51:05.917Z,23.45
2023-08-07T03:53:38.586Z,23.51
2023-08-07T03:56:06.005Z,23.57
2023-08-07T03:58:34.346Z,23.59
2023-08-07T04:01:01.632Z,23.67
2023-08-07T04:03:28.632Z,23.74
2023-08-07T04:05:56.571Z,23.81
2023-08-07T04:08:24.154Z,23.85
2023-08-07T04:11:06.741Z,23.93
2023-08-07T04:13:36.202Z,23.98
2023-08-07T04:16:05.878Z,24.05
2023-08-07T04:18:36.476Z,24.10
2023-08-07T04:21:04.784Z,24.15
2023-08-07T04:23:33.332Z,24.21
2023-08-07T04:26:00.678Z,24.29
2023-08-07T04:28:30.495Z,24.37
2023-08-07T04:30:57.538Z,24.44
2023-08-07T04:33:24.629Z,24.47
2023-08-07T04:35:51.771Z,24.55
2023-08-07T04:38:19.206Z,24.59
2023-08-07T04:40:50.583Z,24.65
2023-08-07T04:43:18.878Z,24.68
2023-08-07T04:45:48.580Z,24.75
2023-08-07T04:48:16.149Z,24.80
2023-08-07T04:50:43.415Z,24.85
2023-08-07T04:53:10.502Z,24.89
2023-08-07T04:55:37.565Z,24.94
2023-08-07T04:58:04.820Z,25.00
2023-08-07T05:00:32.034Z,25.05
2023-08-07T05:02:59.874Z,25.11
2023-08-07T05:05:27.081Z,25.16
2023-08-07T05:07:56.166Z,25.19
2023-08-07T05:10:23.237Z,25.21
2023-08-07T05:12:56.212Z,25.27
2023-08-07T05:15:25.046Z,25.30
2023-08-07T05:17:53.022Z,25.34
2023-08-07T05:20:20.116Z,25.38
2023-08-07T05:22:47.204Z,25.45
2023-08-07T05:25:17.058Z,25.49
2023-08-07T05:27:46.946Z,25.56
2023-08-07T05:30:15.286Z,25.64
2023-08-07T05:32:42.501Z,25.70
2023-08-07T05:35:10.174Z,25.74
2023-08-07T05:37:37.986Z,25.76
2023-08-07T05:40:06.464Z,25.75
2023-08-07T05:42:33.563Z,25.83
2023-08-07T05:45:00.512Z,25.88
2023-08-07T05:47:27.687Z,25.93
2023-08-07T05:49:55.045Z,25.96
2023-08-07T05:52:22.318Z,26.04
2023-08-07T05:54:49.276Z,26.05
2023-08-07T05:57:16.584Z,26.07
2023-08-07T05:59:43.635Z,26.11
2023-08-07T06:02:12.985Z,26.13
2023-08-07T06:04:40.395Z,26.15
2023-08-07T06:07:08.202Z,26.15
2023-08-07T06:09:36.647Z,26.20
2023-08-07T06:12:03.850Z,26.21
2023-08-07T06:14:31.374Z,26.26
2023-08-07T06:16:59.404Z,26.30
2023-08-07T06:19:32.020Z,26.35
2023-08-07T06:22:00.300Z,26.41
2023-08-07T06:24:27.624Z,26.44
2023-08-07T06:26:54.588Z,26.50
2023-08-07T06:29:21.880Z,26.53
2023-08-07T06:31:49.021Z,26.59
2023-08-07T06:34:16.204Z,26.59
2023-08-07T06:36:43.265Z,26.61
2023-08-07T06:39:10.634Z,26.61
2023-08-07T06:41:41.567Z,26.60
2023-08-07T06:44:09.596Z,26.64
2023-08-07T06:46:36.638Z,26.67
2023-08-07T06:49:03.652Z,26.68
2023-08-07T06:51:30.992Z,26.67
2023-08-07T06:53:58.001Z,26.71
2023-08-07T06:56:25.079Z,26.72
2023-08-07T06:58:52.094Z,26.76
2023-08-07T07:01:19.205Z,26.80
2023-08-07T07:03:48.245Z,26.85
2023-08-07T07:06:15.591Z,26.90
2023-08-07T07:08:42.686Z,26.95
2023-08-07T07:11:10.002Z,26.99
2023-08-07T07:13:37.680Z,27.01
2023-08-07T07:16:04.891Z,27.06
2023-08-07T07:18:32.392Z,27.08
2023-08-07T07:21:00.124Z,27.12
2023-08-07T07:23:28.599Z,27.16
2023-08-07T07:25:56.306Z,27.18
2023-08-07T07:28:23.640Z,27.19
2023-08-07T07:30:51.288Z,27.22
2023-08-07T07:33:18.415Z,27.27
2023-08-07T07:35:45.358Z,27.31
2023-08-07T07:38:12.538Z,27.32
2023-08-07T07:40:39.730Z,27.35
2023-08-07T07:43:06.684Z,27.37
2023-08-07T07:45:36.833Z,27.40
2023-08-07T07:48:05.260Z,27.43
2023-08-07T07:50:32.401Z,27.46
2023-08-07T07:52:59.563Z,27.45
2023-08-07T07:55:27.288Z,27.50
2023-08-07T07:57:55.897Z,27.49
2023-08-07T08:00:30.026Z,27.50
2023-08-07T08:02:57.155Z,27.53
2023-08-07T08:05:24.629Z,27.57
2023-08-07T08:07:51.629Z,27.60
2023-08-07T08:10:18.607Z,27.61
2023-08-07T08:12:46.265Z,27.63
2023-08-07T08:15:13.578Z,27.68
2023-08-07T08:17:41.443Z,27.74
2023-08-07T08:20:09.406Z,27.77
2023-08-07T08:22:36.949Z,27.84
2023-08-07T08:25:05.868Z,27.88
2023-08-07T08:27:33.121Z,27.89
2023-08-07T08:30:00.400Z,27.93
2023-08-07T08:32:27.617Z,27.97
2023-08-07T08:34:54.745Z,28.02
2023-08-07T08:37:21.750Z,28.07
2023-08-07T08:39:48.961Z,28.08
2023-08-07T08:42:16.990Z,28.15
2023-08-07T08:44:52.499Z,28.21
2023-08-07T08:47:19.808Z,28.28
2023-08-07T08:50:07.606Z,28.34
2023-08-07T08:52:36.747Z,28.37
2023-08-07T08:55:04.187Z,28.41
2023-08-07T08:57:31.624Z,28.45
2023-08-07T08:59:59.078Z,28.48
2023-08-07T09:02:26.858Z,28.53
2023-08-07T09:04:53.849Z,28.58
2023-08-07T09:07:22.044Z,28.62
2023-08-07T09:09:52.549Z,28.67
2023-08-07T09:12:27.024Z,28.74
2023-08-07T09:14:58.395Z,28.73
2023-08-07T09:17:30.895Z,28.73
2023-08-07T09:19:58.057Z,28.85
2023-08-07T09:22:25.043Z,28.85
2023-08-07T09:24:52.110Z,28.89
2023-08-07T09:27:19.448Z,28.92
2023-08-07T09:29:47.942Z,28.97
2023-08-07T09:32:15.261Z,29.02
2023-08-07T09:34:43.567Z,29.07
2023-08-07T09:37:11.277Z,29.09
2023-08-07T09:39:38.746Z,29.20
2023-08-07T09:42:06.049Z,29.27
2023-08-07T09:44:39.184Z,29.33
2023-08-07T09:47:24.103Z,29.38
2023-08-07T09:49:55.843Z,29.42
2023-08-07T09:52:23.105Z,29.48
2023-08-07T09:54:50.123Z,29.51
2023-08-07T09:57:18.190Z,29.55
2023-08-07T09:59:51.460Z,29.62
2023-08-07T10:02:19.781Z,29.64
2023-08-07T10:04:47.150Z,29.64
2023-08-07T10:07:16.815Z,29.63
2023-08-07T10:09:44.184Z,29.63
2023-08-07T10:12:11.541Z,29.64
2023-08-07T10:14:38.683Z,29.68
2023-08-07T10:17:06.688Z,29.74
2023-08-07T10:19:33.851Z,29.84
2023-08-07T10:22:01.399Z,29.92
2023-08-07T10:24:29.950Z,29.96
2023-08-07T10:26:58.797Z,30.03
2023-08-07T10:29:27.849Z,30.08
2023-08-07T10:31:58.088Z,30.10
2023-08-07T10:34:25.220Z,30.16
2023-08-07T10:36:52.206Z,30.19
2023-08-07T10:39:19.490Z,30.24
2023-08-07T10:41:48.743Z,30.28
2023-08-07T10:44:23.554Z,30.29
2023-08-07T10:46:53.419Z,30.30
2023-08-07T10:49:41.625Z,30.33
2023-08-07T10:52:14.364Z,30.28
2023-08-07T10:54:51.485Z,30.28
2023-08-07T10:57:20.245Z,30.27
2023-08-07T11:00:01.118Z,30.28
2023-08-07T11:02:31.715Z,30.30
2023-08-07T11:04:59.248Z,30.35
2023-08-07T11:07:31.290Z,30.41
2023-08-07T11:10:00.315Z,30.45
2023-08-07T11:12:30.428Z,30.48
2023-08-07T11:14:58.222Z,30.48
2023-08-07T11:17:30.337Z,30.51
2023-08-07T11:19:57.886Z,30.52
2023-08-07T11:22:24.963Z,30.51
2023-08-07T11:24:52.620Z,30.47
2023-08-07T11:27:22.109Z,30.46
2023-08-07T11:29:50.421Z,30.42
2023-08-07T11:32:17.668Z,30.46
2023-08-07T11:34:52.131Z,30.52
2023-08-07T11:37:19.287Z,30.53
2023-08-07T11:39:46.669Z,30.53
2023-08-07T11:42:14.721Z,30.51
2023-08-07T11:44:42.212Z,30.49
2023-08-07T11:47:11.067Z,30.56
2023-08-07T11:49:41.219Z,30.67
2023-08-07T11:52:09.096Z,30.85
2023-08-07T11:54:36.106Z,31.12
2023-08-07T11:57:03.194Z,31.45
2023-08-07T11:59:30.964Z,31.85
2023-08-07T12:01:58.632Z,32.31
2023-08-07T12:04:25.888Z,32.82
2023-08-07T12:06:57.863Z,33.41
2023-08-07T12:09:27.308Z,33.98
2023-08-07T12:11:59.361Z,34.66
2023-08-07T12:14:37.104Z,35.38
2023-08-07T12:17:05.255Z,36.06
2023-08-07T12:19:40.097Z,36.80
2023-08-07T12:22:15.444Z,37.39
2023-08-07T12:24:44.073Z,37.85
2023-08-07T12:27:11.101Z,38.32
2023-08-07T12:29:38.235Z,38.82
2023-08-07T12:32:08.427Z,39.41
2023-08-07T12:34:36.375Z,40.06
2023-08-07T12:37:24.019Z,40.59
2023-08-07T12:44:50.780Z,41.84
2023-08-07T12:47:17.759Z,42.15
2023-08-07T12:49:47.326Z,42.38
2023-08-07T12:52:16.038Z,42.67
2023-08-07T12:58:58.435Z,43.20
2023-08-07T13:01:26.977Z,43.19
2023-08-07T13:03:54.230Z,42.96
2023-08-07T13:06:21.859Z,42.99
2023-08-07T13:08:48.878Z,42.95
2023-08-07T13:11:15.966Z,42.94
2023-08-07T13:13:45.668Z,43.08
2023-08-07T13:16:13.156Z,43.36
2023-08-07T13:18:40.157Z,43.54
2023-08-07T13:21:07.517Z,43.81
2023-08-07T13:23:37.252Z,44.10
2023-08-07T13:26:04.369Z,44.19
2023-08-07T13:28:31.889Z,44.19
2023-08-07T13:31:02.989Z,44.17
2023-08-07T13:33:32.512Z,44.05
2023-08-07T13:36:01.771Z,44.05
2023-08-07T13:38:29.065Z,43.93
2023-08-07T13:40:56.547Z,43.75
2023-08-07T13:43:23.955Z,43.77
2023-08-07T13:45:52.282Z,43.81
2023-08-07T13:48:22.372Z,43.86
2023-08-07T13:50:49.777Z,43.92
2023-08-07T13:53:17.239Z,44.06
2023-08-07T13:55:45.322Z,44.19
2023-08-07T13:58:12.748Z,44.25
2023-08-07T14:00:41.810Z,44.21
2023-08-07T14:03:14.264Z,44.11
2023-08-07T14:05:41.495Z,43.98
2023-08-07T14:08:15.247Z,43.96
2023-08-07T14:10:44.983Z,44.03
2023-08-07T14:13:13.158Z,44.15
2023-08-07T14:15:40.522Z,43.99
2023-08-07T14:18:33.904Z,44.03
2023-08-07T14:23:49.442Z,44.02
2023-08-07T14:26:17.220Z,44.08
2023-08-07T14:28:46.010Z,43.95
2023-08-07T14:31:13.633Z,43.71
2023-08-07T14:33:41.264Z,43.57
2023-08-07T14:36:08.586Z,43.56
2023-08-07T14:38:37.977Z,43.63
2023-08-07T14:41:05.218Z,43.54
2023-08-07T14:43:32.509Z,43.43
2023-08-07T14:46:00.108Z,43.23
2023-08-07T14:48:27.415Z,43.01
2023-08-07T14:50:54.863Z,42.91
2023-08-07T14:53:22.056Z,42.93
2023-08-07T14:55:49.443Z,42.87
2023-08-07T14:58:16.449Z,42.77
2023-08-07T15:00:43.675Z,42.62
2023-08-07T15:03:11.076Z,42.57
2023-08-07T15:05:38.271Z,42.51
2023-08-07T15:08:05.368Z,42.47
2023-08-07T15:10:32.855Z,42.45
2023-08-07T15:13:00.594Z,42.29
2023-08-07T15:15:28.121Z,42.20
2023-08-07T15:17:55.636Z,42.07
2023-08-07T15:20:23.340Z,41.93
2023-08-07T15:22:50.492Z,41.81
2023-08-07T15:25:21.484Z,41.66
2023-08-07T15:27:51.541Z,41.64
2023-08-07T15:30:22.086Z,41.64
2023-08-07T15:32:49.308Z,41.74
2023-08-07T15:35:17.025Z,41.66
2023-08-07T15:37:44.314Z,41.57
2023-08-07T15:40:12.206Z,41.53
2023-08-07T15:42:39.353Z,41.42
2023-08-07T15:45:07.048Z,41.32
2023-08-07T15:47:34.640Z,41.12
2023-08-07T15:50:01.798Z,40.85
2023-08-07T15:52:31.106Z,40.54
2023-08-07T15:54:58.180Z,40.27
2023-08-07T15:57:26.836Z,39.89
2023-08-07T15:59:54.293Z,39.72
2023-08-07T16:02:21.448Z,39.59
2023-08-07T16:04:48.480Z,39.56
2023-08-07T16:07:15.638Z,39.47
2023-08-07T16:09:42.836Z,39.34
2023-08-07T16:12:10.136Z,39.11
2023-08-07T16:14:39.267Z,38.89
2023-08-07T16:17:07.062Z,38.78
2023-08-07T16:19:36.756Z,38.58
2023-08-07T16:22:04.054Z,38.23
2023-08-07T16:24:31.056Z,37.89
2023-08-07T16:26:58.438Z,37.64
2023-08-07T16:29:26.703Z,37.39
2023-08-07T16:31:54.602Z,37.17
2023-08-07T16:34:21.694Z,36.92
2023-08-07T16:36:48.795Z,36.64
2023-08-07T16:39:15.930Z,36.33
2023-08-07T16:41:46.808Z,36.04
2023-08-07T16:44:14.084Z,35.76
2023-08-07T16:46:41.414Z,35.42
2023-08-07T16:49:08.508Z,35.08
2023-08-07T16:51:35.719Z,34.68
2023-08-07T16:54:03.187Z,34.43
2023-08-07T16:56:30.391Z,34.19
2023-08-07T16:58:59.100Z,33.92
2023-08-07T17:01:26.754Z,33.54
2023-08-07T17:03:53.872Z,33.15
2023-08-07T17:06:21.087Z,32.71
2023-08-07T17:08:50.944Z,32.27
2023-08-07T17:11:18.206Z,31.88
2023-08-07T17:13:45.555Z,31.47
2023-08-07T17:16:12.618Z,31.03
2023-08-07T17:18:39.817Z,30.60
2023-08-07T17:21:06.864Z,30.22
2023-08-07T17:23:33.888Z,29.87
2023-08-07T17:26:02.711Z,29.54
2023-08-07T17:28:30.812Z,29.24
2023-08-07T17:30:58.570Z,28.94
2023-08-07T17:33:25.753Z,28.73
2023-08-07T17:35:52.835Z,28.50
2023-08-07T17:38:20.113Z,28.33
2023-08-07T17:40:48.901Z,28.15
2023-08-07T17:43:16.839Z,27.96
2023-08-07T17:45:43.888Z,27.80
2023-08-07T17:48:11.051Z,27.65
2023-08-07T17:50:38.505Z,27.49
2023-08-07T17:53:05.759Z,27.37
2023-08-07T17:55:32.964Z,27.24
2023-08-07T17:58:00.042Z,27.17
2023-08-07T18:00:27.338Z,27.08
2023-08-07T18:02:55.049Z,27.00
2023-08-07T18:05:23.597Z,26.90
2023-08-07T18:07:51.895Z,26.79
2023-08-07T18:10:19.090Z,26.69
2023-08-07T18:12:46.188Z,26.62
2023-08-07T18:15:13.270Z,26.56
2023-08-07T18:17:40.353Z,26.49
2023-08-07T18:20:08.854Z,26.43
2023-08-07T18:22:35.808Z,26.36
2023-08-07T18:25:02.807Z,26.29
2023-08-07T18:27:31.267Z,26.22
2023-08-07T18:29:58.870Z,26.14
2023-08-07T18:32:26.050Z,26.08
2023-08-07T18:34:53.380Z,26.01
2023-08-07T18:37:21.170Z,25.95
2023-08-07T18:39:48.142Z,25.87
2023-08-07T18:42:15.162Z,25.82
2023-08-07T18:44:42.195Z,25.76
2023-08-07T18:47:09.231Z,25.70
2023-08-07T18:49:36.209Z,25.66
2023-08-07T18:52:05.549Z,25.59
2023-08-07T18:54:32.844Z,25.52
2023-08-07T18:57:01.263Z,25.49
2023-08-07T18:59:30.374Z,25.45
2023-08-07T19:01:57.572Z,25.42
2023-08-07T19:04:24.560Z,25.38
2023-08-07T19:06:51.925Z,25.35
2023-08-07T19:09:19.036Z,25.32
2023-08-07T19:11:46.204Z,25.27
2023-08-07T19:14:13.172Z,25.23
2023-08-07T19:17:08.717Z,25.18
2023-08-07T19:19:36.708Z,25.13
2023-08-07T19:22:04.939Z,25.09
2023-08-07T19:24:32.039Z,25.05
2023-08-07T19:26:59.560Z,25.01
2023-08-07T19:29:26.975Z,24.97
2023-08-07T19:31:54.033Z,24.90
2023-08-07T19:34:21.177Z,24.88
2023-08-07T19:36:50.993Z,24.84
2023-08-07T19:39:18.913Z,24.82
2023-08-07T19:41:50.479Z,24.79
2023-08-07T19:44:17.499Z,24.74
2023-08-07T19:46:44.522Z,24.72
2023-08-07T19:49:13.668Z,24.70
2023-08-07T19:51:40.718Z,24.66
2023-08-07T19:54:08.337Z,24.64
2023-08-07T19:56:36.963Z,24.60
2023-08-07T19:59:09.447Z,24.56
2023-08-07T20:01:36.885Z,24.50
2023-08-07T20:04:05.280Z,24.53
2023-08-07T20:06:38.324Z,24.49
2023-08-07T20:09:12.898Z,24.47
2023-08-07T20:11:40.003Z,24.43
2023-08-07T20:14:07.171Z,24.40
2023-08-07T20:16:34.634Z,24.32
2023-08-07T20:19:01.853Z,24.32
2023-08-07T20:21:29.254Z,24.31
2023-08-07T20:23:56.479Z,24.28
2023-08-07T20:26:25.323Z,24.21
2023-08-07T20:28:52.453Z,24.24
2023-08-07T20:31:19.701Z,24.18
2023-08-07T20:33:46.814Z,24.21
2023-08-07T20:36:14.256Z,24.18
2023-08-07T20:38:41.244Z,24.17
2023-08-07T20:41:09.553Z,24.19
2023-08-07T20:43:36.552Z,24.19
2023-08-07T20:46:03.710Z,24.19
2023-08-07T20:48:30.780Z,24.18
2023-08-07T20:50:58.162Z,24.14
2023-08-07T20:53:25.193Z,24.16
2023-08-07T20:55:52.213Z,24.15
2023-08-07T20:58:19.314Z,24.15
2023-08-07T21:00:46.302Z,24.13
2023-08-07T21:03:13.249Z,24.12
2023-08-07T21:05:40.332Z,24.10
2023-08-07T21:08:07.389Z,24.07
2023-08-07T21:10:34.457Z,24.05
2023-08-07T21:13:01.487Z,24.04
2023-08-07T21:15:28.639Z,24.03
2023-08-07T21:17:58.163Z,24.02
2023-08-07T21:20:25.938Z,24.00
2023-08-07T21:22:54.234Z,24.00
2023-08-07T21:25:21.804Z,23.97
2023-08-07T21:27:49.007Z,23.94
2023-08-07T21:30:16.111Z,23.91
2023-08-07T21:32:45.282Z,23.91
2023-08-07T21:35:12.916Z,23.88
2023-08-07T21:37:41.031Z,23.88
2023-08-07T21:40:10.215Z,23.86
2023-08-07T21:42:37.316Z,23.84
2023-08-07T21:45:06.837Z,23.78
2023-08-07T21:47:34.431Z,23.79
2023-08-07T21:50:01.521Z,23.75
2023-08-07T21:52:29.169Z,23.73
2023-08-07T21:54:59.113Z,23.72
2023-08-07T21:57:26.372Z,23.70
2023-08-07T21:59:53.391Z,23.71
2023-08-07T22:02:20.376Z,23.70
2023-08-07T22:04:47.479Z,23.68
2023-08-07T22:07:14.493Z,23.63
2023-08-07T22:09:41.744Z,23.61
2023-08-07T22:12:09.120Z,23.60
2023-08-07T22:14:36.180Z,23.57
2023-08-07T22:17:03.385Z,23.55
2023-08-07T22:19:30.407Z,23.51
2023-08-07T22:21:57.743Z,23.46
2023-08-07T22:24:25.365Z,23.40
2023-08-07T22:26:52.439Z,23.35
2023-08-07T22:29:19.760Z,23.27
2023-08-07T22:31:46.833Z,23.23
2023-08-07T22:34:14.021Z,23.18
2023-08-07T22:36:41.230Z,23.13
2023-08-07T22:39:08.181Z,23.09
2023-08-07T22:41:35.304Z,23.05
2023-08-07T22:44:02.365Z,23.02
2023-08-07T22:46:29.491Z,22.98
2023-08-07T22:48:56.695Z,22.94
2023-08-07T22:51:25.033Z,22.93
2023-08-07T22:53:52.221Z,22.90
2023-08-07T22:56:19.228Z,22.84
2023-08-07T22:58:47.556Z,22.85
2023-08-07T23:01:14.662Z,22.81
2023-08-07T23:03:43.441Z,22.78
2023-08-07T23:06:11.421Z,22.79
2023-08-07T23:08:38.420Z,22.76
2023-08-07T23:11:05.704Z,22.73
2023-08-07T23:13:32.792Z,22.69
2023-08-07T23:15:59.879Z,22.71
2023-08-07T23:18:27.344Z,22.69
2023-08-07T23:20:54.415Z,22.67
2023-08-07T23:23:21.517Z,22.64
2023-08-07T23:25:48.509Z,22.64
2023-08-07T23:28:15.477Z,22.64
2023-08-07T23:30:42.572Z,22.60
2023-08-07T23:33:09.721Z,22.63
2023-08-07T23:35:36.682Z,22.62
2023-08-07T23:38:04.620Z,22.59
2023-08-07T23:40:31.620Z,22.58
2023-08-07T23:42:58.608Z,22.56
2023-08-07T23:45:25.630Z,22.53
2023-08-07T23:47:52.633Z,22.53
2023-08-07T23:50:19.829Z,22.52
2023-08-07T23:52:46.974Z,22.52
2023-08-07T23:55:13.995Z,22.50
2023-08-07T23:57:41.215Z,22.45
